Have a Safe July 4th! 

Flight Track Log - Related Links

Times and Time Zones

All times are in EDT time to prevent confusion due to time zone crossing. See the JTA65 flight status page for this flight to view local times or setup timezone preferences in your user account.

Time Position Orientation Groundspeed Altitude Reporting Facility
EDT Latitude Longitude Course Direction KTS MPH feet Rate Location/Type
Tue 07:38:00 AM 33.3206 130.3411 199° South  Level Estimated
Tue 07:39:00 AM 33.2320 130.3049 199° South  Level Estimated
Tue 07:40:00 AM 33.1433 130.2687 199° South  Level Estimated
Tue 07:41:00 AM 33.0546 130.2326 199° South  Level Estimated
Tue 07:42:00 AM 32.9658 130.1966 199° South  Level Estimated
Tue 07:43:00 AM 32.8749 130.1598 199° South  Level Estimated
Tue 07:44:00 AM 32.7840 130.1231 199° South  Level Estimated
Tue 07:45:00 AM 32.6930 130.0864 199° South  Level Estimated
Tue 07:46:00 AM 32.6021 130.0498 199° South  Level Estimated
Tue 07:47:00 AM 32.5111 130.0133 199° South  Level Estimated
Tue 07:48:00 AM 32.4202 129.9768 199° South  Level Estimated
Tue 07:49:00 AM 32.3292 129.9405 199° South  Level Estimated
Tue 07:50:00 AM 32.2382 129.9042 199° South  Level Estimated
Tue 07:51:00 AM 32.1472 129.8679 199° South  Level Estimated
Tue 07:52:00 AM 32.0562 129.8318 199° South  Level Estimated
Tue 07:53:00 AM 31.9652 129.7957 199° South  Level Estimated
Tue 07:54:00 AM 31.8741 129.7597 199° South  Level Estimated
Tue 07:55:00 AM 31.7831 129.7237 199° South  Level Estimated
Tue 07:56:00 AM 31.6920 129.6879 199° South  Level Estimated
Tue 07:57:00 AM 31.6010 129.6521 199° South  Level Estimated
Tue 07:58:00 AM 31.5099 129.6163 198° South  Level Estimated
Tue 07:59:00 AM 31.4188 129.5807 198° South  Level Estimated
Tue 08:00:00 AM 31.3277 129.5451 198° South  Level Estimated
Tue 08:01:00 AM 31.2366 129.5096 198° South  Level Estimated
Tue 08:02:00 AM 31.1455 129.4741 198° South  Level Estimated
Tue 08:03:00 AM 31.0544 129.4387 198° South  Level Estimated
Tue 08:04:00 AM 30.9633 129.4034 198° South  Level Estimated
Tue 08:05:00 AM 30.8721 129.3682 198° South  Level Estimated
Tue 08:06:00 AM 30.7810 129.3330 198° South  Level Estimated
Tue 08:07:00 AM 30.6898 129.2979 198° South  Level Estimated
Tue 08:08:00 AM 30.5987 129.2628 198° South  Level Estimated
Tue 08:09:00 AM 30.5075 129.2278 198° South  Level Estimated
Tue 08:10:00 AM 30.4163 129.1929 198° South  Level Estimated
Tue 08:11:00 AM 30.3251 129.1581 198° South  Level Estimated
Tue 08:12:00 AM 30.2339 129.1233 198° South  Level Estimated
Tue 08:13:00 AM 30.1427 129.0885 198° South  Level Estimated
Tue 08:14:00 AM 30.0514 129.0539 198° South  Level Estimated
Tue 08:15:00 AM 29.9602 129.0193 198° South  Level Estimated
Tue 08:16:00 AM 29.8690 128.9848 198° South  Level Estimated
Tue 08:17:00 AM 29.7777 128.9503 198° South  Level Estimated
Tue 08:18:00 AM 29.6864 128.9159 198° South  Level Estimated
Tue 08:19:00 AM 29.5952 128.8815 198° South  Level Estimated
Tue 08:20:00 AM 29.5039 128.8472 198° South  Level Estimated
Tue 08:21:00 AM 29.4126 128.8130 198° South  Level Estimated
Tue 08:22:00 AM 29.3213 128.7789 198° South  Level Estimated
Tue 08:23:00 AM 29.2300 128.7448 198° South  Level Estimated
Tue 08:24:00 AM 29.1387 128.7107 198° South  Level Estimated
Tue 08:25:00 AM 29.0451 128.6759 198° South  Level Estimated
Tue 08:26:00 AM 28.9514 128.6411 198° South  Level Estimated
Tue 08:27:00 AM 28.8578 128.6064 198° South  Level Estimated
Tue 08:28:00 AM 28.7641 128.5718 198° South  Level Estimated
Tue 08:29:00 AM 28.6705 128.5372 198° South  Level Estimated
Tue 08:30:00 AM 28.5768 128.5027 198° South  Level Estimated
Tue 08:31:00 AM 28.4831 128.4682 198° South  Level Estimated
Tue 08:32:00 AM 28.3894 128.4338 198° South  Level Estimated
Tue 08:33:00 AM 28.2945 128.3990 198° South  Level Estimated
Tue 08:34:00 AM 28.1996 128.3643 198° South  Level Estimated
Tue 08:35:00 AM 28.1046 128.3296 198° South  Level Estimated
Tue 08:36:00 AM 28.0097 128.2950 198° South  Level Estimated
Tue 08:37:00 AM 27.9148 128.2605 198° South  Level Estimated
Tue 08:38:00 AM 27.8198 128.2260 198° South  Level Estimated
Tue 08:39:00 AM 27.7249 128.1916 198° South  Level Estimated
Tue 08:40:00 AM 27.6299 128.1573 198° South  Level Estimated
Tue 08:41:00 AM 27.5349 128.1230 198° South  Level Estimated
Tue 08:42:00 AM 27.4399 128.0887 198° South  Level Estimated
Tue 08:43:00 AM 27.3449 128.0545 198° South  Level Estimated
Tue 08:44:00 AM 27.2500 128.0204 198° South  Level Estimated
Tue 08:45:00 AM 27.1549 127.9864 198° South  Level Estimated
Tue 08:46:00 AM 27.0599 127.9524 198° South  Level Estimated
Tue 08:47:00 AM 26.9649 127.9184 198° South  Level Estimated
Tue 08:48:00 AM 26.8699 127.8845 198° South  Level Estimated
Tue 08:49:00 AM 26.7748 127.8507 198° South  Level Estimated
Tue 08:50:00 AM 26.6798 127.8169 198° South  Level Estimated
Tue 08:51:00 AM 26.5847 127.7832 198° South  Level Estimated
Tue 08:52:00 AM 26.4897 127.7495 198° South  Level Estimated
Tue 08:53:00 AM 26.3946 127.7159 198° South  Level Estimated
Tue 08:54:00 AM 26.2995 127.6824 198° South  Level Estimated
Tue 08:55:00 AM 26.2044 127.6489 198° South  Level Estimated
Tue 08:56:00 AM 26.1958 127.6459 198° South  Level Estimated
Tue 08:57:00 AM 26.1958 127.6459 347° North  Level Estimated
Tue 08:58:00 AM 26.1958 127.6459 347° North  Level Estimated
Tue 08:59:00 AM 26.1958 127.6459 347° North  Level Estimated
Tue 09:00:00 AM 26.1958 127.6459 347° North  Level Estimated
Tue 09:01:00 AM 26.1958 127.6459 347° North  Level Estimated
Tue 09:02:00 AM 26.1958 127.6459 347° North  Level Estimated

Login

Don't have an account? Register now (free) for customized features, flight alerts, and more!